sensor_id;sensor_type;location;lat;lon;timestamp;pressure;altitude;pressure_sealevel;temperature;humidity
22862;BME280;11598;50.652;6.172;2022-10-04T00:04:10;97219.63;;;7.06;100.00
22862;BME280;11598;50.652;6.172;2022-10-04T00:24:31;97190.88;;;7.12;100.00
22862;BME280;11598;50.652;6.172;2022-10-04T00:34:52;97190.38;;;7.23;100.00
22862;BME280;11598;50.652;6.172;2022-10-04T00:44:54;97171.81;;;7.32;100.00
22862;BME280;11598;50.652;6.172;2022-10-04T00:55:03;97178.25;;;7.40;100.00
22862;BME280;11598;50.652;6.172;2022-10-04T01:05:29;97174.22;;;7.52;100.00
22862;BME280;11598;50.652;6.172;2022-10-04T01:15:52;97177.03;;;7.65;100.00
22862;BME280;11598;50.652;6.172;2022-10-04T01:25:54;97162.72;;;7.75;100.00
22862;BME280;11598;50.652;6.172;2022-10-04T01:35:54;97143.38;;;7.82;100.00
22862;BME280;11598;50.652;6.172;2022-10-04T01:46:01;97149.88;;;7.90;100.00
22862;BME280;11598;50.652;6.172;2022-10-04T01:56:07;97149.22;;;7.86;100.00
22862;BME280;11598;50.652;6.172;2022-10-04T02:06:10;97151.34;;;7.78;100.00
22862;BME280;11598;50.652;6.172;2022-10-04T02:16:12;97147.59;;;7.68;100.00
22862;BME280;11598;50.652;6.172;2022-10-04T02:26:13;97138.47;;;7.60;100.00
22862;BME280;11598;50.652;6.172;2022-10-04T02:36:14;97118.94;;;7.55;100.00
22862;BME280;11598;50.652;6.172;2022-10-04T02:46:27;97107.00;;;7.52;100.00
22862;BME280;11598;50.652;6.172;2022-10-04T02:56:31;97110.75;;;7.47;100.00
22862;BME280;11598;50.652;6.172;2022-10-04T03:06:32;97089.53;;;7.40;100.00
22862;BME280;11598;50.652;6.172;2022-10-04T03:16:35;97082.59;;;7.40;100.00
22862;BME280;11598;50.652;6.172;2022-10-04T03:26:45;97067.34;;;7.36;100.00
22862;BME280;11598;50.652;6.172;2022-10-04T03:36:47;97043.41;;;7.32;100.00
22862;BME280;11598;50.652;6.172;2022-10-04T03:46:48;97037.56;;;7.29;100.00
22862;BME280;11598;50.652;6.172;2022-10-04T03:56:50;97045.78;;;7.19;100.00
22862;BME280;11598;50.652;6.172;2022-10-04T04:17:54;97057.31;;;6.96;100.00
22862;BME280;11598;50.652;6.172;2022-10-04T04:27:38;97048.66;;;6.80;100.00
22862;BME280;11598;50.652;6.172;2022-10-04T04:37:40;97038.19;;;6.66;100.00
22862;BME280;11598;50.652;6.172;2022-10-04T04:47:46;97037.31;;;6.65;100.00
22862;BME280;11598;50.652;6.172;2022-10-04T04:57:49;97026.75;;;6.70;100.00
22862;BME280;11598;50.652;6.172;2022-10-04T05:18:36;97000.72;;;6.74;100.00
22862;BME280;11598;50.652;6.172;2022-10-04T05:28:36;96999.00;;;6.75;100.00
22862;BME280;11598;50.652;6.172;2022-10-04T05:38:57;96996.31;;;6.76;100.00
22862;BME280;11598;50.652;6.172;2022-10-04T05:49:21;96977.25;;;6.79;100.00
22862;BME280;11598;50.652;6.172;2022-10-04T05:59:46;96985.69;;;6.83;100.00
22862;BME280;11598;50.652;6.172;2022-10-04T06:20:26;96993.97;;;7.05;100.00
22862;BME280;11598;50.652;6.172;2022-10-04T06:30:39;96986.97;;;7.25;100.00
22862;BME280;11598;50.652;6.172;2022-10-04T06:41:08;96995.09;;;7.50;100.00
22862;BME280;11598;50.652;6.172;2022-10-04T07:01:32;96982.44;;;9.41;100.00
22862;BME280;11598;50.652;6.172;2022-10-04T07:11:52;97000.56;;;10.78;100.00
22862;BME280;11598;50.652;6.172;2022-10-04T07:32:29;97008.69;;;10.87;100.00
22862;BME280;11598;50.652;6.172;2022-10-04T07:53:07;97017.44;;;10.98;95.41
22862;BME280;11598;50.652;6.172;2022-10-04T08:23:43;96988.41;;;11.17;93.56
22862;BME280;11598;50.652;6.172;2022-10-04T08:34:03;96979.25;;;11.25;93.83
22862;BME280;11598;50.652;6.172;2022-10-04T09:16:06;96979.06;;;12.50;87.69
22862;BME280;11598;50.652;6.172;2022-10-04T09:26:27;96982.72;;;12.82;85.92
22862;BME280;11598;50.652;6.172;2022-10-04T09:57:17;96967.84;;;13.52;79.13
22862;BME280;11598;50.652;6.172;2022-10-04T10:07:47;96963.94;;;13.69;77.40
22862;BME280;11598;50.652;6.172;2022-10-04T10:50:29;96971.19;;;14.41;69.19
22862;BME280;11598;50.652;6.172;2022-10-04T11:00:22;96979.44;;;14.69;68.99
22862;BME280;11598;50.652;6.172;2022-10-04T11:10:40;96977.91;;;14.87;68.52
22862;BME280;11598;50.652;6.172;2022-10-04T11:31:43;96943.59;;;15.11;63.77
22862;BME280;11598;50.652;6.172;2022-10-04T11:42:01;96946.88;;;15.34;64.55
22862;BME280;11598;50.652;6.172;2022-10-04T12:02:27;96934.25;;;15.49;62.34
22862;BME280;11598;50.652;6.172;2022-10-04T12:33:19;96933.41;;;15.49;60.81
22862;BME280;11598;50.652;6.172;2022-10-04T13:44:38;96887.28;;;15.67;65.00
22862;BME280;11598;50.652;6.172;2022-10-04T15:59:24;96840.66;;;14.61;74.58
22862;BME280;11598;50.652;6.172;2022-10-04T16:09:43;96844.97;;;14.29;75.98
22862;BME280;11598;50.652;6.172;2022-10-04T16:40:36;96849.25;;;13.34;79.63
22862;BME280;11598;50.652;6.172;2022-10-04T17:01:24;96840.72;;;12.53;84.05
22862;BME280;11598;50.652;6.172;2022-10-04T17:11:42;96858.91;;;12.19;85.59
22862;BME280;11598;50.652;6.172;2022-10-04T17:52:59;96887.16;;;11.27;89.17
22862;BME280;11598;50.652;6.172;2022-10-04T18:24:18;96891.19;;;10.69;91.25
22862;BME280;11598;50.652;6.172;2022-10-04T18:34:28;96901.16;;;10.49;91.79
22862;BME280;11598;50.652;6.172;2022-10-04T18:44:47;96906.44;;;10.35;92.53
22862;BME280;11598;50.652;6.172;2022-10-04T18:55:17;96921.75;;;10.25;93.18
22862;BME280;11598;50.652;6.172;2022-10-04T19:16:11;96919.06;;;10.14;94.36
22862;BME280;11598;50.652;6.172;2022-10-04T19:26:36;96905.53;;;10.09;95.12
22862;BME280;11598;50.652;6.172;2022-10-04T19:37:00;96877.06;;;10.07;95.86
22862;BME280;11598;50.652;6.172;2022-10-04T19:57:34;96873.88;;;10.16;97.33
22862;BME280;11598;50.652;6.172;2022-10-04T20:07:36;96859.66;;;10.22;97.83
22862;BME280;11598;50.652;6.172;2022-10-04T20:17:36;96863.28;;;10.20;98.24
22862;BME280;11598;50.652;6.172;2022-10-04T20:47:50;96862.09;;;9.98;100.00
22862;BME280;11598;50.652;6.172;2022-10-04T20:57:53;96859.06;;;9.91;100.00
22862;BME280;11598;50.652;6.172;2022-10-04T21:18:22;96874.63;;;9.91;100.00
22862;BME280;11598;50.652;6.172;2022-10-04T21:28:31;96857.59;;;9.87;100.00
22862;BME280;11598;50.652;6.172;2022-10-04T21:38:31;96861.66;;;9.91;100.00
22862;BME280;11598;50.652;6.172;2022-10-04T21:48:32;96858.84;;;9.94;100.00
22862;BME280;11598;50.652;6.172;2022-10-04T21:58:32;96848.78;;;9.90;100.00
22862;BME280;11598;50.652;6.172;2022-10-04T22:08:33;96855.13;;;9.86;100.00
22862;BME280;11598;50.652;6.172;2022-10-04T22:18:33;96856.16;;;9.83;100.00
22862;BME280;11598;50.652;6.172;2022-10-04T22:28:35;96836.53;;;9.79;100.00
22862;BME280;11598;50.652;6.172;2022-10-04T22:38:37;96835.69;;;9.79;100.00
22862;BME280;11598;50.652;6.172;2022-10-04T22:48:37;96832.38;;;9.77;100.00
22862;BME280;11598;50.652;6.172;2022-10-04T22:58:39;96830.69;;;9.76;100.00
22862;BME280;11598;50.652;6.172;2022-10-04T23:08:40;96826.75;;;9.70;100.00
22862;BME280;11598;50.652;6.172;2022-10-04T23:18:41;96824.44;;;9.65;100.00
22862;BME280;11598;50.652;6.172;2022-10-04T23:28:41;96817.41;;;9.67;100.00
22862;BME280;11598;50.652;6.172;2022-10-04T23:38:53;96821.03;;;9.65;100.00
22862;BME280;11598;50.652;6.172;2022-10-04T23:48:53;96815.31;;;9.60;100.00
22862;BME280;11598;50.652;6.172;2022-10-04T23:58:55;96798.34;;;9.54;100.00
